Time;durP1;ratioP1;P1;durP2;ratioP2;P2;SDS_P1;SDS_P2;PMS_P1;PMS_P2;Temp;Humidity;BMP_temperature;BMP_pressure;BME280_temperature;BME280_humidity;BME280_pressure;Samples;Min_cycle;Max_cycle;Signal;HPM_P1;HPM_P2
2023/09/09 00:00:28;;;;;;;20.77;14.52;;;21.80;99.90;;;;;;4592877;19;20013;-74
2023/09/09 00:02:23;;;;;;;20.75;14.88;;;21.80;99.90;;;;;;4593972;19;20014;-74
2023/09/09 00:03:59;;;;;;;18.38;14.32;;;21.80;99.90;;;;;;4594285;19;20002;-75
2023/09/09 00:05:34;;;;;;;18.58;14.77;;;21.80;99.90;;;;;;4592991;19;20003;-74
2023/09/09 00:07:11;;;;;;;20.70;16.52;;;21.80;99.90;;;;;;4593074;19;20078;-74
2023/09/09 00:08:45;;;;;;;22.02;16.83;;;21.80;99.90;;;;;;4592946;19;20007;-74
2023/09/09 00:10:19;;;;;;;25.10;16.33;;;21.80;99.90;;;;;;4592479;19;20326;-75
2023/09/09 00:11:54;;;;;;;21.42;17.27;;;21.80;99.90;;;;;;4593887;19;20006;-75
2023/09/09 00:13:28;;;;;;;22.02;17.73;;;21.70;99.90;;;;;;4593807;19;20033;-75
2023/09/09 00:15:04;;;;;;;23.83;18.40;;;21.70;99.90;;;;;;4593739;19;20322;-75
2023/09/09 00:16:39;;;;;;;21.33;16.80;;;21.70;99.90;;;;;;4594093;19;20075;-75
2023/09/09 00:18:15;;;;;;;17.00;14.23;;;21.70;99.90;;;;;;4594017;19;20003;-74
2023/09/09 00:19:49;;;;;;;18.83;14.07;;;21.80;99.90;;;;;;4592263;19;20060;-75
2023/09/09 00:21:25;;;;;;;18.70;14.43;;;21.70;99.90;;;;;;4592472;19;20014;-75
2023/09/09 00:23:00;;;;;;;18.10;14.82;;;21.70;99.90;;;;;;4591261;19;20422;-75
2023/09/09 00:24:33;;;;;;;20.35;15.13;;;21.80;99.90;;;;;;4593608;19;20003;-75
2023/09/09 00:26:09;;;;;;;21.02;14.70;;;21.70;99.90;;;;;;4593646;19;20446;-75
2023/09/09 00:27:44;;;;;;;18.58;14.32;;;21.70;99.90;;;;;;4593801;19;20426;-75
2023/09/09 00:29:18;;;;;;;16.67;13.80;;;21.80;99.90;;;;;;4593541;19;20310;-75
2023/09/09 00:30:54;;;;;;;17.70;14.50;;;21.70;99.90;;;;;;4593518;19;20006;-75
2023/09/09 00:32:29;;;;;;;17.02;13.15;;;21.70;99.90;;;;;;4593453;19;20291;-75
2023/09/09 00:34:03;;;;;;;21.05;13.75;;;21.70;99.90;;;;;;4593462;19;19994;-75
2023/09/09 00:35:39;;;;;;;15.75;12.80;;;21.70;99.90;;;;;;4594125;19;20027;-75
2023/09/09 00:37:13;;;;;;;15.40;12.65;;;21.70;99.90;;;;;;4593603;19;19995;-74
2023/09/09 00:38:47;;;;;;;14.73;11.95;;;21.70;99.90;;;;;;4592305;19;20006;-75
2023/09/09 00:40:22;;;;;;;15.57;12.55;;;21.70;99.90;;;;;;4592337;19;20011;-75
2023/09/09 00:41:56;;;;;;;20.55;14.25;;;21.70;99.90;;;;;;4593499;19;19998;-75
2023/09/09 00:43:32;;;;;;;16.77;13.73;;;21.70;99.90;;;;;;4593482;19;20422;-75
2023/09/09 00:45:08;;;;;;;18.35;14.13;;;21.70;99.90;;;;;;4593497;19;20002;-75
2023/09/09 00:46:44;;;;;;;16.73;13.75;;;21.70;99.90;;;;;;4593182;19;20003;-75
2023/09/09 00:48:18;;;;;;;23.70;18.40;;;21.70;99.90;;;;;;4592218;19;20002;-75
2023/09/09 00:49:53;;;;;;;25.98;18.13;;;21.70;99.90;;;;;;4591405;19;20077;-75
2023/09/09 00:51:27;;;;;;;22.13;17.40;;;21.70;99.90;;;;;;4592763;19;20047;-75
2023/09/09 00:53:01;;;;;;;18.70;13.30;;;21.70;99.90;;;;;;4593028;19;20421;-75
2023/09/09 00:54:36;;;;;;;16.00;12.75;;;21.70;99.90;;;;;;4593391;19;20444;-74
2023/09/09 00:56:10;;;;;;;16.17;12.07;;;21.70;99.90;;;;;;4591652;19;20084;-75
2023/09/09 00:57:44;;;;;;;15.57;11.98;;;21.70;99.90;;;;;;4591798;19;20010;-75
2023/09/09 00:59:20;;;;;;;16.17;12.60;;;21.70;99.90;;;;;;4592017;19;20440;-75
2023/09/09 01:00:54;;;;;;;15.82;11.48;;;21.70;99.90;;;;;;4592875;19;20452;-75
2023/09/09 01:02:28;;;;;;;17.25;12.65;;;21.70;99.90;;;;;;4592915;19;19998;-75
2023/09/09 01:04:04;;;;;;;13.30;11.82;;;21.70;99.90;;;;;;4592848;19;20002;-75
2023/09/09 01:05:39;;;;;;;15.90;11.88;;;21.70;99.90;;;;;;4591733;19;20037;-75
2023/09/09 01:07:13;;;;;;;17.90;11.75;;;21.70;99.90;;;;;;4592336;19;20017;-74
2023/09/09 01:08:49;;;;;;;18.67;11.75;;;21.70;99.90;;;;;;4592768;19;20006;-75
2023/09/09 01:10:23;;;;;;;14.98;10.90;;;21.70;99.90;;;;;;4592027;19;20343;-75
2023/09/09 01:11:59;;;;;;;16.65;11.73;;;21.70;99.90;;;;;;4592966;19;20003;-75
2023/09/09 01:13:34;;;;;;;13.32;10.82;;;21.70;99.90;;;;;;4591580;19;20006;-75
2023/09/09 01:15:08;;;;;;;16.00;11.15;;;21.70;99.90;;;;;;4592278;19;20006;-75
2023/09/09 01:16:42;;;;;;;13.05;10.55;;;21.70;99.90;;;;;;4591120;19;20489;-75
2023/09/09 01:18:18;;;;;;;14.98;11.90;;;21.70;99.90;;;;;;4592327;19;19995;-75
2023/09/09 01:19:55;;;;;;;16.77;12.80;;;21.70;99.90;;;;;;4589928;19;20007;-75
2023/09/09 01:21:30;;;;;;;15.02;12.43;;;21.70;99.90;;;;;;4591230;19;20006;-75
2023/09/09 01:23:05;;;;;;;14.52;12.45;;;21.70;99.90;;;;;;4591113;19;20011;-74
2023/09/09 01:24:40;;;;;;;15.75;12.98;;;21.70;99.90;;;;;;4592391;19;20006;-75
2023/09/09 01:26:14;;;;;;;15.40;12.25;;;21.70;99.90;;;;;;4592415;19;19998;-75
2023/09/09 01:27:50;;;;;;;17.90;12.50;;;21.70;99.90;;;;;;4592688;19;20013;-75
2023/09/09 01:29:24;;;;;;;13.90;11.55;;;21.70;99.90;;;;;;4592285;19;20025;-75
2023/09/09 01:30:58;;;;;;;16.88;12.68;;;21.70;99.90;;;;;;4592322;19;20307;-75
2023/09/09 01:32:33;;;;;;;15.60;11.98;;;21.70;99.90;;;;;;4592335;19;20085;-75
2023/09/09 01:34:08;;;;;;;14.05;12.32;;;21.70;99.90;;;;;;4592103;19;20279;-75
2023/09/09 01:35:43;;;;;;;13.25;11.05;;;21.70;99.90;;;;;;4592429;19;20003;-74
2023/09/09 01:37:19;;;;;;;17.80;12.25;;;21.70;99.90;;;;;;4592576;19;20007;-75
2023/09/09 01:38:54;;;;;;;15.07;11.48;;;21.60;99.90;;;;;;4591034;19;20014;-75
2023/09/09 01:40:28;;;;;;;17.40;12.93;;;21.70;99.90;;;;;;4591559;19;20010;-75
2023/09/09 01:42:04;;;;;;;14.30;11.48;;;21.70;99.90;;;;;;4592454;19;20029;-75
2023/09/09 01:43:38;;;;;;;13.70;11.20;;;21.60;99.90;;;;;;4592473;19;19995;-75
2023/09/09 01:45:12;;;;;;;17.00;12.15;;;21.60;99.90;;;;;;4592297;19;20089;-75
2023/09/09 01:46:47;;;;;;;17.67;11.88;;;21.60;99.90;;;;;;4591986;19;20010;-75
2023/09/09 01:48:21;;;;;;;17.40;11.63;;;21.60;99.90;;;;;;4591976;19;20013;-74
2023/09/09 01:49:55;;;;;;;13.98;11.60;;;21.60;99.90;;;;;;4590300;19;19998;-74
2023/09/09 01:51:32;;;;;;;13.27;11.85;;;21.60;99.90;;;;;;4590984;19;20322;-74
2023/09/09 01:53:06;;;;;;;18.20;12.65;;;21.60;99.90;;;;;;4591708;19;19999;-75
2023/09/09 01:54:39;;;;;;;16.98;12.32;;;21.60;99.90;;;;;;4592193;19;20003;-75
2023/09/09 01:56:15;;;;;;;16.13;12.65;;;21.70;99.90;;;;;;4592251;19;20465;-75
2023/09/09 01:57:49;;;;;;;17.15;14.07;;;21.60;99.90;;;;;;4591892;19;19995;-75
2023/09/09 01:59:22;;;;;;;21.08;15.95;;;21.60;99.90;;;;;;4591193;19;19998;-74
2023/09/09 02:00:58;;;;;;;23.85;17.30;;;21.60;99.90;;;;;;4591886;19;20002;-75
2023/09/09 02:02:32;;;;;;;20.00;14.95;;;21.60;99.90;;;;;;4591851;19;19999;-74
2023/09/09 02:04:06;;;;;;;16.80;13.18;;;21.60;99.90;;;;;;4591999;19;20524;-75
2023/09/09 02:05:41;;;;;;;17.20;12.48;;;21.60;99.90;;;;;;4591767;19;20018;-75
2023/09/09 02:07:16;;;;;;;16.13;13.25;;;21.60;99.90;;;;;;4590677;19;20314;-75
2023/09/09 02:08:50;;;;;;;17.67;14.63;;;21.60;99.90;;;;;;4591612;19;20418;-75
2023/09/09 02:10:25;;;;;;;19.70;15.13;;;21.60;99.90;;;;;;4590853;19;20011;-75
2023/09/09 02:12:03;;;;;;;22.65;14.25;;;21.60;99.90;;;;;;4591905;19;20003;-75
2023/09/09 02:13:39;;;;;;;18.58;14.80;;;21.60;99.90;;;;;;4590315;19;20029;-75
2023/09/09 02:15:14;;;;;;;18.67;14.70;;;21.60;99.90;;;;;;4591360;19;20013;-75
2023/09/09 02:16:48;;;;;;;17.17;13.93;;;21.60;99.90;;;;;;4591818;19;19998;-75
2023/09/09 02:18:22;;;;;;;18.23;13.73;;;21.60;99.90;;;;;;4591771;19;20426;-75
2023/09/09 02:19:58;;;;;;;22.50;15.13;;;21.60;99.90;;;;;;4590391;19;20367;-75
2023/09/09 02:21:33;;;;;;;16.52;13.30;;;21.60;99.90;;;;;;4591681;19;20009;-75
2023/09/09 02:23:08;;;;;;;17.73;14.38;;;21.60;99.90;;;;;;4590398;19;20029;-74
2023/09/09 02:24:43;;;;;;;17.95;14.05;;;21.60;99.90;;;;;;4591080;19;20013;-75
2023/09/09 02:26:18;;;;;;;18.65;13.30;;;21.60;99.90;;;;;;4591419;19;19995;-75
2023/09/09 02:27:52;;;;;;;18.35;14.30;;;21.60;99.90;;;;;;4591387;19;20417;-75
2023/09/09 02:29:27;;;;;;;18.30;13.85;;;21.60;99.90;;;;;;4591317;19;20447;-75
2023/09/09 02:31:02;;;;;;;17.65;14.55;;;21.60;99.90;;;;;;4591330;19;20020;-75
2023/09/09 02:32:36;;;;;;;17.33;14.25;;;21.60;99.90;;;;;;4591229;19;20022;-75
2023/09/09 02:34:12;;;;;;;18.35;13.57;;;21.60;99.90;;;;;;4591354;19;20014;-75
2023/09/09 02:35:47;;;;;;;19.02;13.85;;;21.60;99.90;;;;;;4591490;19;20436;-75
2023/09/09 02:37:23;;;;;;;17.00;13.18;;;21.60;99.90;;;;;;4589817;19;20350;-75
2023/09/09 02:38:59;;;;;;;21.33;14.60;;;21.60;99.90;;;;;;4589970;19;20015;-75
2023/09/09 02:40:34;;;;;;;20.60;14.68;;;21.50;99.90;;;;;;4589919;19;20082;-75
2023/09/09 02:42:10;;;;;;;21.15;14.30;;;21.50;99.90;;;;;;4591195;19;20007;-74
2023/09/09 02:43:45;;;;;;;19.10;14.75;;;21.60;99.90;;;;;;4589990;19;20033;-75
2023/09/09 02:45:19;;;;;;;17.50;13.73;;;21.50;99.90;;;;;;4591194;19;20432;-75
2023/09/09 02:46:54;;;;;;;18.92;13.68;;;21.50;99.90;;;;;;4594977;19;20076;-75
2023/09/09 02:48:29;;;;;;;18.13;13.30;;;21.60;99.90;;;;;;4595739;19;20002;-75
2023/09/09 02:50:04;;;;;;;19.17;13.00;;;21.50;99.90;;;;;;4594754;19;20065;-74
2023/09/09 02:51:38;;;;;;;17.88;14.10;;;21.50;99.90;;;;;;4594184;19;20006;-75
2023/09/09 02:53:14;;;;;;;16.13;13.30;;;21.50;99.90;;;;;;4595160;19;20002;-75
2023/09/09 02:54:48;;;;;;;17.05;14.07;;;21.50;99.90;;;;;;4595490;19;20007;-75
2023/09/09 02:56:22;;;;;;;19.60;13.32;;;21.60;99.90;;;;;;4595458;19;19998;-75
2023/09/09 02:57:58;;;;;;;14.20;12.70;;;21.60;99.90;;;;;;4595530;19;20006;-75
2023/09/09 02:59:35;;;;;;;18.40;13.85;;;21.50;99.90;;;;;;4594352;19;20014;-75
2023/09/09 03:01:10;;;;;;;15.40;13.73;;;21.60;99.90;;;;;;4595436;19;20304;-75
2023/09/09 03:02:45;;;;;;;17.75;13.80;;;21.50;99.90;;;;;;4595415;19;20454;-75
2023/09/09 03:04:19;;;;;;;19.52;13.45;;;21.50;99.90;;;;;;4595261;19;20445;-75
2023/09/09 03:05:55;;;;;;;17.52;13.65;;;21.50;99.90;;;;;;4595237;19;19998;-75
2023/09/09 03:07:31;;;;;;;15.63;12.65;;;21.50;99.90;;;;;;4595374;19;20003;-74
2023/09/09 03:09:05;;;;;;;16.65;13.23;;;21.50;99.90;;;;;;4595221;19;20092;-74
2023/09/09 03:10:39;;;;;;;16.92;12.75;;;21.50;99.90;;;;;;4593860;19;20002;-75
2023/09/09 03:12:20;;;;;;;20.00;14.63;;;21.50;99.90;;;;;;4595186;19;20010;-75
2023/09/09 03:13:56;;;;;;;18.38;15.52;;;21.50;99.90;;;;;;4595192;19;20009;-74
2023/09/09 03:15:30;;;;;;;21.10;16.13;;;21.50;99.90;;;;;;4595075;19;20303;-75
2023/09/09 03:17:06;;;;;;;20.15;15.45;;;21.50;99.90;;;;;;4594963;19;20502;-75
2023/09/09 03:18:41;;;;;;;22.98;17.73;;;21.50;99.90;;;;;;4595008;19;20017;-75
2023/09/09 03:20:15;;;;;;;24.92;17.80;;;21.50;99.90;;;;;;4593790;19;20317;-75
2023/09/09 03:21:50;;;;;;;19.85;15.60;;;21.50;99.90;;;;;;4593898;19;20010;-75
2023/09/09 03:23:29;;;;;;;18.08;15.00;;;21.50;99.90;;;;;;4593632;19;20433;-74
2023/09/09 03:25:04;;;;;;;18.40;14.32;;;21.50;99.90;;;;;;4594786;19;20003;-75
2023/09/09 03:26:39;;;;;;;19.60;14.07;;;21.50;99.90;;;;;;4594871;19;20020;-75
2023/09/09 03:28:15;;;;;;;18.48;14.48;;;21.50;99.90;;;;;;4594724;19;20002;-75
2023/09/09 03:29:49;;;;;;;17.20;14.27;;;21.50;99.90;;;;;;4594279;19;20003;-75
2023/09/09 03:31:26;;;;;;;18.15;13.85;;;21.50;99.90;;;;;;4594879;19;19998;-75
2023/09/09 03:33:01;;;;;;;19.35;14.25;;;21.50;99.90;;;;;;4594653;19;20093;-75
2023/09/09 03:34:36;;;;;;;18.17;13.95;;;21.50;99.90;;;;;;4594933;19;20011;-75
2023/09/09 03:36:12;;;;;;;21.10;15.30;;;21.50;99.90;;;;;;4593383;19;20304;-75
2023/09/09 03:37:47;;;;;;;14.00;12.50;;;21.50;99.90;;;;;;4594262;19;20014;-75
2023/09/09 03:39:21;;;;;;;16.77;13.82;;;21.50;99.90;;;;;;4590631;19;20021;-75
2023/09/09 03:40:57;;;;;;;15.70;12.63;;;21.50;99.90;;;;;;4594059;19;20037;-75
2023/09/09 03:42:33;;;;;;;15.98;13.52;;;21.50;99.90;;;;;;4594571;19;19998;-74
2023/09/09 03:44:07;;;;;;;16.27;12.35;;;21.50;99.90;;;;;;4594931;19;20006;-75
2023/09/09 03:45:42;;;;;;;18.20;13.10;;;21.50;99.90;;;;;;4594374;19;20020;-75
2023/09/09 03:47:16;;;;;;;15.60;13.50;;;21.50;99.90;;;;;;4594474;19;19995;-75
2023/09/09 03:48:50;;;;;;;16.48;12.35;;;21.50;99.90;;;;;;4594802;19;20006;-74
2023/09/09 03:50:26;;;;;;;19.48;13.25;;;21.60;99.90;;;;;;4592203;19;20023;-81
2023/09/09 03:52:00;;;;;;;15.82;13.07;;;21.60;99.90;;;;;;4594957;19;20433;-76
2023/09/09 03:53:36;;;;;;;17.10;12.13;;;21.60;99.90;;;;;;4594469;19;20002;-76
2023/09/09 03:55:11;;;;;;;15.05;12.63;;;21.70;99.90;;;;;;4594671;19;19995;-75
2023/09/09 03:56:45;;;;;;;15.95;12.70;;;21.70;99.90;;;;;;4593302;19;19998;-74
2023/09/09 03:58:19;;;;;;;14.02;12.43;;;21.70;99.90;;;;;;4594242;19;20300;-74
2023/09/09 03:59:54;;;;;;;18.67;12.23;;;21.70;99.90;;;;;;4591602;19;20007;-74
2023/09/09 04:01:30;;;;;;;16.02;12.85;;;21.70;99.90;;;;;;4594119;19;20306;-74
2023/09/09 04:03:04;;;;;;;14.57;12.02;;;21.70;99.90;;;;;;4592991;19;20007;-75
2023/09/09 04:04:40;;;;;;;16.95;12.60;;;21.70;99.90;;;;;;4592923;19;20017;-74
2023/09/09 04:06:16;;;;;;;16.70;12.07;;;21.80;99.90;;;;;;4594148;19;20321;-74
2023/09/09 04:07:51;;;;;;;14.57;12.23;;;21.80;99.90;;;;;;4594449;19;20010;-74
2023/09/09 04:09:26;;;;;;;18.75;12.27;;;21.70;99.90;;;;;;4594033;19;20313;-74
2023/09/09 04:11:00;;;;;;;14.40;12.27;;;21.70;99.90;;;;;;4594121;19;19999;-75
2023/09/09 04:12:35;;;;;;;14.27;12.05;;;21.80;99.90;;;;;;4594022;19;20019;-75
2023/09/09 04:14:10;;;;;;;19.38;12.45;;;21.70;99.90;;;;;;4594055;19;20003;-74
2023/09/09 04:15:46;;;;;;;16.23;12.80;;;21.70;99.90;;;;;;4592738;19;20031;-74
2023/09/09 04:17:20;;;;;;;16.77;12.90;;;21.70;99.90;;;;;;4593580;19;20015;-74
2023/09/09 04:18:56;;;;;;;15.25;13.25;;;21.70;99.90;;;;;;4594085;19;20021;-74
2023/09/09 04:20:30;;;;;;;17.02;13.60;;;21.70;99.90;;;;;;4592685;19;20436;-74
2023/09/09 04:22:04;;;;;;;15.25;13.30;;;21.70;99.90;;;;;;4594121;19;20022;-74
2023/09/09 04:23:40;;;;;;;18.25;12.98;;;21.70;99.90;;;;;;4594690;19;20325;-75
2023/09/09 04:25:13;;;;;;;15.82;13.63;;;21.70;99.90;;;;;;4593919;19;19998;-75
2023/09/09 04:26:49;;;;;;;15.55;12.90;;;21.70;99.90;;;;;;4594087;19;19995;-74
2023/09/09 04:28:28;;;;;;;13.18;11.73;;;21.70;99.90;;;;;;4594250;19;20010;-74
2023/09/09 04:30:03;;;;;;;15.55;13.63;;;21.70;99.90;;;;;;4592533;19;20006;-75
2023/09/09 04:31:37;;;;;;;16.20;13.38;;;21.70;99.90;;;;;;4593678;19;20029;-75
2023/09/09 04:33:12;;;;;;;17.75;12.77;;;21.70;99.90;;;;;;4593922;19;20019;-75
2023/09/09 04:34:46;;;;;;;17.23;13.05;;;21.70;99.90;;;;;;4593860;19;19994;-75
2023/09/09 04:36:20;;;;;;;18.83;13.35;;;21.70;99.90;;;;;;4592432;19;20006;-75
2023/09/09 04:37:55;;;;;;;14.30;11.75;;;21.70;99.90;;;;;;4593511;19;20336;-75
2023/09/09 04:39:29;;;;;;;14.77;12.90;;;21.70;99.90;;;;;;4592097;19;20023;-75
2023/09/09 04:41:03;;;;;;;14.32;12.18;;;21.70;99.90;;;;;;4593585;19;20436;-75
2023/09/09 04:42:38;;;;;;;17.92;12.82;;;21.70;99.90;;;;;;4594027;19;20449;-75
2023/09/09 04:44:12;;;;;;;16.92;13.07;;;21.70;99.90;;;;;;4592352;19;20018;-75
2023/09/09 04:45:48;;;;;;;18.45;13.02;;;21.60;99.90;;;;;;4592550;19;20381;-73
2023/09/09 04:47:23;;;;;;;16.33;12.60;;;21.70;99.90;;;;;;4593162;19;20024;-73
2023/09/09 04:48:57;;;;;;;18.17;14.43;;;21.70;99.90;;;;;;4593717;19;20006;-76
2023/09/09 04:50:32;;;;;;;15.88;14.07;;;21.60;99.90;;;;;;4592391;19;20025;-75
2023/09/09 04:52:08;;;;;;;15.57;13.85;;;21.70;99.90;;;;;;4593536;19;20007;-76
2023/09/09 04:53:42;;;;;;;17.52;14.18;;;21.70;99.90;;;;;;4593067;19;20025;-74
2023/09/09 04:55:17;;;;;;;15.07;13.48;;;21.70;99.90;;;;;;4593407;19;20003;-77
2023/09/09 04:56:52;;;;;;;19.45;13.57;;;21.70;99.90;;;;;;4592625;19;20048;-75
2023/09/09 04:58:26;;;;;;;18.73;13.43;;;21.70;99.90;;;;;;4592643;19;20014;-74
2023/09/09 05:00:03;;;;;;;16.20;14.18;;;21.70;99.90;;;;;;4591871;19;20329;-71
2023/09/09 05:01:40;;;;;;;17.83;13.95;;;21.70;99.90;;;;;;4593231;19;20014;-71
2023/09/09 05:03:14;;;;;;;20.05;14.65;;;21.70;99.90;;;;;;4593769;19;20006;-72
2023/09/09 05:04:49;;;;;;;20.23;14.52;;;21.80;99.90;;;;;;4598461;19;20015;-73
2023/09/09 05:06:25;;;;;;;16.55;14.70;;;21.80;99.90;;;;;;4592978;19;20094;-73
2023/09/09 05:07:59;;;;;;;16.98;14.00;;;21.80;99.90;;;;;;4594972;19;20066;-73
2023/09/09 05:09:34;;;;;;;16.55;13.65;;;21.80;99.90;;;;;;4592942;19;20334;-74
2023/09/09 05:11:11;;;;;;;15.80;12.77;;;21.80;99.90;;;;;;4594290;19;20007;-74
2023/09/09 05:12:45;;;;;;;14.45;12.18;;;21.80;99.90;;;;;;4592577;19;20011;-72
2023/09/09 05:14:19;;;;;;;14.85;12.57;;;21.80;99.90;;;;;;4592693;19;20528;-72
2023/09/09 05:15:55;;;;;;;16.08;13.07;;;21.80;99.90;;;;;;4592644;19;20326;-73
2023/09/09 05:17:29;;;;;;;17.17;12.32;;;21.80;99.90;;;;;;4592957;19;20006;-74
2023/09/09 05:19:04;;;;;;;15.30;12.80;;;21.90;99.90;;;;;;4590750;19;20074;-81
2023/09/09 05:20:39;;;;;;;14.25;11.98;;;21.90;99.90;;;;;;4590493;19;20010;-72
2023/09/09 05:22:13;;;;;;;15.80;12.20;;;21.80;99.90;;;;;;4592141;19;20023;-73
2023/09/09 05:23:47;;;;;;;13.35;11.77;;;21.90;99.90;;;;;;4592417;19;20017;-70
2023/09/09 05:25:23;;;;;;;13.60;10.77;;;22.00;99.90;;;;;;4592409;19;20082;-77
2023/09/09 05:26:57;;;;;;;15.25;11.02;;;22.10;99.90;;;;;;4591014;19;20007;-73
2023/09/09 05:28:31;;;;;;;15.75;10.88;;;22.20;99.90;;;;;;4591939;19;20078;-73
2023/09/09 05:30:07;;;;;;;11.80;10.50;;;22.30;99.90;;;;;;4591735;19;20027;-73
2023/09/09 05:31:41;;;;;;;13.80;10.50;;;22.30;99.90;;;;;;4592531;19;20010;-73
2023/09/09 05:33:15;;;;;;;14.98;11.13;;;22.40;99.90;;;;;;4592226;19;20002;-73
2023/09/09 05:34:51;;;;;;;14.77;10.63;;;22.40;99.90;;;;;;4592261;19;20014;-73
2023/09/09 05:36:25;;;;;;;15.40;11.13;;;22.40;99.90;;;;;;4592172;19;20007;-73
2023/09/09 05:38:00;;;;;;;16.40;12.35;;;22.30;99.90;;;;;;4590932;19;20449;-73
2023/09/09 05:39:36;;;;;;;17.23;12.13;;;22.30;99.90;;;;;;4591019;19;20014;-73
2023/09/09 05:41:10;;;;;;;17.33;11.73;;;22.30;99.90;;;;;;4593675;19;20022;-73
2023/09/09 05:42:44;;;;;;;15.52;12.48;;;22.20;99.90;;;;;;4595606;19;20007;-73
2023/09/09 05:44:20;;;;;;;14.68;12.15;;;22.10;99.90;;;;;;4593854;19;20098;-73
2023/09/09 05:45:58;;;;;;;16.15;12.95;;;22.00;99.90;;;;;;4593881;19;20002;-73
2023/09/09 05:47:32;;;;;;;18.25;13.88;;;22.00;99.90;;;;;;4592714;19;20006;-73
2023/09/09 05:49:08;;;;;;;14.65;12.60;;;21.90;99.90;;;;;;4593409;19;20021;-73
2023/09/09 05:50:42;;;;;;;18.30;13.40;;;21.90;99.90;;;;;;4594662;19;20371;-73
2023/09/09 05:52:16;;;;;;;19.10;13.63;;;22.00;99.90;;;;;;4592664;19;20323;-74
2023/09/09 05:53:53;;;;;;;15.02;12.00;;;22.00;99.90;;;;;;4599605;19;20007;-74
2023/09/09 05:55:27;;;;;;;16.52;13.43;;;22.00;99.90;;;;;;4595477;19;20027;-74
2023/09/09 05:57:01;;;;;;;17.02;14.68;;;22.10;99.90;;;;;;4593208;19;20002;-73
2023/09/09 05:58:38;;;;;;;19.13;13.27;;;22.10;99.90;;;;;;4592511;19;20376;-73
2023/09/09 06:00:13;;;;;;;17.75;13.57;;;22.20;99.90;;;;;;4591594;19;20007;-73
2023/09/09 06:01:47;;;;;;;14.85;13.35;;;22.20;99.90;;;;;;4592319;19;20009;-73
2023/09/09 06:03:23;;;;;;;15.07;12.63;;;22.30;99.90;;;;;;4590478;19;20430;-73
2023/09/09 06:04:57;;;;;;;16.35;12.85;;;22.30;99.90;;;;;;4589742;19;20010;-73
2023/09/09 06:06:31;;;;;;;15.60;13.30;;;22.40;99.90;;;;;;4589782;19;19999;-73
2023/09/09 06:08:08;;;;;;;15.98;13.25;;;22.40;99.90;;;;;;4591491;19;20006;-73
2023/09/09 06:09:42;;;;;;;14.35;12.77;;;22.40;99.90;;;;;;4591348;19;20030;-73
2023/09/09 06:11:16;;;;;;;15.90;13.55;;;22.40;99.90;;;;;;4591789;19;20031;-73
2023/09/09 06:12:52;;;;;;;13.70;12.27;;;22.40;99.90;;;;;;4595470;19;20011;-73
2023/09/09 06:14:27;;;;;;;15.52;13.52;;;22.40;99.90;;;;;;4600117;19;20014;-73
2023/09/09 06:16:03;;;;;;;16.35;13.15;;;22.40;99.90;;;;;;4592800;19;20010;-73
2023/09/09 06:17:41;;;;;;;14.43;12.93;;;22.40;99.90;;;;;;4596328;19;20514;-74
2023/09/09 06:19:16;;;;;;;14.60;13.02;;;22.40;99.90;;;;;;4597811;19;20002;-73
2023/09/09 06:20:52;;;;;;;14.75;13.25;;;22.40;99.90;;;;;;4590836;19;20002;-73
2023/09/09 06:22:29;;;;;;;14.48;12.45;;;22.40;99.90;;;;;;4597339;19;20003;-73
2023/09/09 06:24:04;;;;;;;14.13;12.63;;;22.40;99.90;;;;;;4598023;19;20007;-73
2023/09/09 06:25:37;;;;;;;14.55;13.07;;;22.40;99.90;;;;;;4599206;19;20365;-73
2023/09/09 06:27:15;;;;;;;13.95;12.57;;;22.40;99.90;;;;;;4596572;19;20287;-73
2023/09/09 06:28:49;;;;;;;15.10;12.75;;;22.30;99.90;;;;;;4596555;19;20092;-73
2023/09/09 06:30:25;;;;;;;15.05;12.70;;;22.30;99.90;;;;;;4594993;19;20032;-73
2023/09/09 06:32:00;;;;;;;15.20;12.63;;;22.30;99.90;;;;;;4596789;19;20040;-73
2023/09/09 06:33:35;;;;;;;14.30;12.90;;;22.30;99.90;;;;;;4596283;19;20002;-73
2023/09/09 06:35:09;;;;;;;15.10;13.70;;;22.30;99.90;;;;;;4597728;19;20003;-73
2023/09/09 06:36:44;;;;;;;14.52;13.02;;;22.30;99.90;;;;;;4596668;19;20023;-73
2023/09/09 06:38:19;;;;;;;14.43;12.85;;;22.30;99.90;;;;;;4596565;19;20070;-73
2023/09/09 06:39:55;;;;;;;16.60;13.82;;;22.30;99.90;;;;;;4594236;19;20327;-73
2023/09/09 06:41:31;;;;;;;13.50;12.10;;;22.40;99.90;;;;;;4596783;19;20305;-73
2023/09/09 06:43:06;;;;;;;15.05;13.45;;;22.40;99.90;;;;;;4596979;19;20023;-72
2023/09/09 06:44:40;;;;;;;18.35;13.65;;;22.40;99.90;;;;;;4598581;19;20414;-72
2023/09/09 06:46:15;;;;;;;13.80;12.38;;;22.40;99.90;;;;;;4596650;19;20009;-72
2023/09/09 06:47:50;;;;;;;16.25;13.93;;;22.40;99.90;;;;;;4594692;19;20100;-72
2023/09/09 06:49:25;;;;;;;15.32;13.82;;;22.40;99.90;;;;;;4595429;19;20033;-72
2023/09/09 06:51:02;;;;;;;14.27;12.50;;;22.40;99.90;;;;;;4596792;19;20029;-72
2023/09/09 06:52:38;;;;;;;14.57;12.70;;;22.40;99.90;;;;;;4596660;19;20009;-73
2023/09/09 06:54:13;;;;;;;13.93;12.52;;;22.40;99.90;;;;;;4596733;19;20010;-73
2023/09/09 06:55:49;;;;;;;15.38;12.70;;;22.40;99.90;;;;;;4596694;19;20003;-72
2023/09/09 06:57:23;;;;;;;14.13;12.38;;;22.40;99.90;;;;;;4602052;19;20006;-72
2023/09/09 06:58:56;;;;;;;14.15;12.73;;;22.40;99.90;;;;;;4600411;19;20354;-73
2023/09/09 07:00:32;;;;;;;12.82;11.55;;;22.40;99.90;;;;;;4596065;19;20039;-73
2023/09/09 07:02:06;;;;;;;13.05;11.75;;;22.40;99.90;;;;;;4597116;19;20002;-73
2023/09/09 07:03:41;;;;;;;13.43;12.07;;;22.40;99.90;;;;;;4597322;19;20436;-73
2023/09/09 07:05:17;;;;;;;13.88;12.45;;;22.40;99.90;;;;;;4597118;19;20003;-73
2023/09/09 07:06:52;;;;;;;12.85;11.52;;;22.50;99.90;;;;;;4596706;19;20025;-73
2023/09/09 07:08:27;;;;;;;12.30;11.10;;;22.40;99.90;;;;;;4602855;19;19999;-73
2023/09/09 07:10:02;;;;;;;13.63;12.30;;;22.50;99.90;;;;;;4600692;19;20010;-74
2023/09/09 07:11:37;;;;;;;13.48;12.07;;;22.50;99.90;;;;;;4608307;19;19998;-72
2023/09/09 07:13:11;;;;;;;14.15;11.27;;;22.50;99.90;;;;;;4597015;19;19998;-71
2023/09/09 07:14:48;;;;;;;12.43;11.20;;;22.50;99.90;;;;;;4597037;19;20003;-72
2023/09/09 07:16:23;;;;;;;12.98;11.77;;;22.50;99.90;;;;;;4595673;19;20025;-73
2023/09/09 07:17:58;;;;;;;13.10;11.82;;;22.50;99.90;;;;;;4595252;19;20011;-73
2023/09/09 07:19:33;;;;;;;13.05;11.82;;;22.60;99.90;;;;;;4593034;19;20070;-73
2023/09/09 07:21:09;;;;;;;12.57;11.38;;;22.60;99.90;;;;;;4593834;19;20002;-75
2023/09/09 07:22:43;;;;;;;13.05;11.75;;;22.60;99.90;;;;;;4593529;19;20011;-82
2023/09/09 07:24:20;;;;;;;12.63;11.32;;;22.70;99.90;;;;;;4594736;19;20012;-75
2023/09/09 07:25:54;;;;;;;13.20;11.80;;;22.70;99.90;;;;;;4595048;19;20401;-70
2023/09/09 07:27:31;;;;;;;13.82;12.35;;;22.80;99.90;;;;;;4599854;19;20054;-71
2023/09/09 07:29:06;;;;;;;13.52;12.13;;;22.80;99.90;;;;;;4608245;19;20003;-72
2023/09/09 07:30:41;;;;;;;14.25;12.93;;;22.90;99.90;;;;;;4610078;19;20022;-72
2023/09/09 07:32:15;;;;;;;13.70;11.32;;;22.90;99.90;;;;;;4608049;19;20034;-71
2023/09/09 07:33:53;;;;;;;12.93;11.50;;;22.90;99.90;;;;;;4595327;19;20006;-70
2023/09/09 07:35:31;;;;;;;14.10;12.70;;;23.10;99.90;;;;;;4593811;19;20014;-70
2023/09/09 07:37:05;;;;;;;14.05;12.65;;;23.20;99.90;;;;;;4593478;19;20011;-70
2023/09/09 07:38:40;;;;;;;13.32;11.50;;;23.10;99.90;;;;;;4593887;19;20014;-70
2023/09/09 07:40:15;;;;;;;16.67;11.90;;;23.20;99.90;;;;;;4593062;19;20018;-72
2023/09/09 07:41:50;;;;;;;13.73;11.90;;;23.30;99.90;;;;;;4594810;19;20019;-71
2023/09/09 07:43:26;;;;;;;13.95;12.57;;;23.30;99.90;;;;;;4594734;19;20025;-72
2023/09/09 07:45:01;;;;;;;13.05;11.75;;;23.20;99.90;;;;;;4594580;19;20006;-73
2023/09/09 07:46:36;;;;;;;14.20;12.38;;;23.20;99.90;;;;;;4594935;19;19994;-71
2023/09/09 07:48:11;;;;;;;15.50;13.90;;;23.20;99.90;;;;;;4594939;19;20014;-71
2023/09/09 07:49:47;;;;;;;14.70;12.98;;;23.30;99.90;;;;;;4594256;19;20300;-71
2023/09/09 07:51:21;;;;;;;16.15;13.85;;;23.30;99.90;;;;;;4594567;19;20022;-70
2023/09/09 07:52:56;;;;;;;15.30;13.48;;;23.30;99.90;;;;;;4594858;19;20029;-70
2023/09/09 07:54:32;;;;;;;14.05;12.32;;;23.30;99.90;;;;;;4594696;19;20013;-71
2023/09/09 07:56:06;;;;;;;13.90;12.50;;;23.20;99.90;;;;;;4594676;19;19999;-70
2023/09/09 07:57:41;;;;;;;15.18;12.90;;;23.20;99.90;;;;;;4594721;19;20036;-70
2023/09/09 07:59:16;;;;;;;14.55;12.48;;;23.20;99.90;;;;;;4593779;19;20019;-70
2023/09/09 08:01:05;;;;;;;14.55;12.10;;;23.20;99.90;;;;;;4594605;19;20010;-70
2023/09/09 08:02:42;;;;;;;17.60;11.85;;;23.20;99.90;;;;;;4594309;19;19999;-69